Terminal Aerodrome Forecast
Issued by NWS Columbia, SC

Home | Current Version | Previous Version | Text Only | Print | Product List | Glossary On
Versions: 1 2 3 4 5 6 7 8 9 10 11 12 13 14 15 16 17 18 19 20 21 22 23 24 25 26
000
FTUS42 KCAE 280234 AAB
TAFCAE
TAF AMD
KCAE 280234Z 2803/2824 11004KT P6SM SCT200
     FM280900 00000KT P6SM SCT015
     FM281400 VRB04KT P6SM SCT030
     FM281900 06005KT P6SM SCT040=

USA.gov is the U.S. government's official web portal to all federal, state and local government web resources and services.